Airfield :
LOGIN :

Register | Disclaimer

   EN    FR    IT 

 










Legend :    VFR   Marginal VFR   IFR   Intensive IFR   Very Intensive IFR
Visi :
Ceiling :
>= 8 km
>= 3000ft
5 to 8 km
1000 to 3000 ft
1500m to 5 km
500 to 1000 ft
800 to 1500m
200 to 500 ft
< 800m
< 200 ft
Symbols :   Thunderstorms  Fog  Heavy snow  Heavy precipitations  Wind > 20 kt
SIGMETs :     Misc.  Thunderstorms  Icing  Turbulence  Mountain Waves  Volcanic Ashes







- Airport Elevation : 433 ft
- IATA code : CCF
- Download approach charts


LFMK - Carcassonne

CURRENT METAR :
  • 160530Z AUTO 09006KT 060V130 7000 BKN019 05/04 Q1029 TEMPO 0200 FG VV///

EXPIRED METARs :
  • 160500Z AUTO 10006KT 070V130 7000 FEW017 05/05 Q1029 TEMPO 0200 FG VV///
  • 160430Z AUTO 11005KT 080V140 7000 NSC 05/04 Q1029
  • 160400Z AUTO 09004KT 060V120 6000 NSC 04/03 Q1029
  • 160330Z AUTO 09004KT 6000 NSC 03/03 Q1029
  • 160300Z AUTO VRB03KT 8000 NSC 04/03 Q1029

TAF TAF LFMK
Valid from the 16 at 03:00 until the 17 at 03:00 UTC


160200Z 1603/1703 10012KT 9999 BKN020
TEMPO 1603/1609 1200 BR BKN007
PROB40
TEMPO 1603/1608 VRB02KT 0200 FG VV///
BECMG 1610/1612 09015G25KT NSC
BECMG 1618/1621 BKN020
No reported NOTAMs for that airfield.



MET'MAP, your aeronautical weather chart ! - Copyright ORBIFLY December 2007 - Disclaimer

ORBIFLY MET'MAP TEAM :

Programming & Development : Alexandra Zaïnal
Concept & Development : Baudouin d'Aumeries
Co-Development & Prog : Marc-Olivier Méhu
Technical & hardware support : Manuel Goepfert

Contact : metmap@orbifly.com




SOURCES & CREDITS :

   NOAA